Latest Weather Observations for Mount Hotham AWS

IDV60801

Issued at 3:05 pm EDT Thursday 27 November 2014 (issued every 30 minutes, with the page automatically refreshed every 10 minutes)

About weather observations | Map of weather stations | Latest weather observations for VIC | Other Formats
Station Details ID: 083085 Name: MOUNT HOTHAM Lat: -36.98 Lon: 147.13 Height: 1849.0 m
Data from the previous 72 hours. | See also: Recent months at Mount Hotham AWS
Date/Time
EDT
Temp
°C
App
Temp
°C
Dew
Point
Rel
Hum
%
Delta-T
°C
Wind Press
QNH
hPa
Press
MSL
hPa
Rain
since 9 am
mm
Dir
 
Spd
km/h
Gust
km/h
Spd
kts
Gust
kts
27/03:00pm 12.6 7.7 2.2 49 5.0 SSE 17 28 9 15 - - 0.0
27/02:30pm 12.0 6.4 1.3 48 5.1 SSE 20 28 11 15 - - 0.0
27/02:00pm 12.8 7.2 3.2 52 4.7 SSE 22 32 12 17 - - 0.0
27/01:30pm 11.4 7.1 0.8 48 4.9 SE 13 20 7 11 - - 0.0
27/01:00pm 11.8 6.2 0.9 47 5.1 SSE 20 28 11 15 - - 0.0
27/12:30pm 11.3 6.9 2.6 55 4.2 SSW 15 22 8 12 - - 0.0
27/12:00pm 10.8 6.2 1.6 53 4.3 SSW 15 26 8 14 - - 0.0
27/11:30am 11.5 7.6 3.3 57 4.0 S 13 26 7 14 - - 0.0
27/11:00am 10.6 6.9 2.4 57 3.9 S 11 17 6 9 - - 0.0
27/10:30am 9.7 5.7 0.3 52 4.3 SSE 11 17 6 9 - - 0.0
27/10:00am 8.8 4.6 -0.8 51 4.2 SSE 11 19 6 10 - - 0.0
27/09:30am 9.2 5.1 -0.4 51 4.3 SE 11 13 6 7 - - 0.0
27/09:00am 8.9 5.4 -1.2 49 4.4 ENE 7 9 4 5 - - 0.0
27/08:30am 8.4 4.7 -3.1 44 4.8 NE 7 9 4 5 - - 0.0
27/08:00am 8.9 5.3 -3.3 42 5.1 NE 6 7 3 4 - - 0.0
27/07:30am 7.5 3.9 -3.4 46 4.4 ENE 6 7 3 4 - - 0.0
27/07:00am 6.7 3.1 0.4 64 2.8 ENE 9 9 5 5 - - 0.0
27/06:30am 6.3 2.2 -0.2 63 2.8 ENE 11 13 6 7 - - 0.0
27/06:00am 5.8 1.6 -0.9 62 2.8 ENE 11 11 6 6 - - 0.0
27/05:30am 6.3 2.8 -1.3 58 3.2 E 7 11 4 6 - - 0.0
27/05:00am 6.3 3.2 0.0 64 2.7 E 6 9 3 5 - - 0.0
27/04:30am 5.6 2.7 1.3 74 1.9 E 6 7 3 4 - - 0.0
27/04:00am 6.1 3.4 0.2 66 2.6 E 4 7 2 4 - - 0.0
27/03:30am 6.1 1.9 -30.7 5 8.1 ENE 2 6 1 3 - - 0.0
27/03:00am 5.4 -0.1 -27.6 7 7.7 E 9 11 5 6 - - 0.0
27/02:30am 5.1 -0.8 -26.4 8 7.5 E 11 15 6 8 - - 0.0
27/02:00am 4.0 -1.9 -10.4 34 5.0 ESE 15 17 8 9 - - 0.0
27/01:30am 4.9 -0.4 -7.2 41 4.4 SE 13 15 7 8 - - 0.0
27/01:00am 4.3 -0.4 -1.7 65 2.5 SE 13 17 7 9 - - 0.0
27/12:30am 2.5 -1.2 2.4 99 0.0 ESE 11 17 6 9 - - 0.0
27/12:00am 3.0 -1.4 2.9 99 0.0 E 15 19 8 10 - - 0.0
 
Date/Time
EDT
Temp
°C
App
Temp
°C
Dew
Point
Rel
Hum
%
Delta-T
°C
Wind Press
QNH
hPa
Press
MSL
hPa
Rain
since 9 am
mm
Dir
 
Spd
km/h
Gust
km/h
Spd
kts
Gust
kts
26/11:30pm 3.2 -2.1 3.1 99 0.0 ESE 20 24 11 13 - - 0.0
26/11:00pm 3.8 -1.4 3.7 99 0.0 SE 20 28 11 15 - - 0.0
26/10:30pm 4.3 -0.8 4.2 99 0.0 SE 20 28 11 15 - - 0.0
26/10:00pm 4.2 -0.9 4.1 99 0.0 SE 20 30 11 16 - - 0.0
26/09:30pm 4.5 -0.5 4.4 99 0.0 SSE 20 28 11 15 - - 0.0
26/09:00pm 5.0 -0.3 4.9 99 0.0 SSE 22 26 12 14 - - 0.0
26/08:30pm 5.0 0.1 4.9 99 0.0 SSE 20 24 11 13 - - 0.0
26/08:00pm 5.3 0.4 5.2 99 0.0 SSE 20 24 11 13 - - 0.0
26/07:30pm 5.5 0.7 5.4 99 0.0 SSE 20 24 11 13 - - 0.0
26/07:00pm 5.9 0.8 5.8 99 0.0 SSE 22 28 12 15 - - 0.0
26/06:30pm 6.3 0.9 6.2 99 0.1 SSE 24 28 13 15 - - 0.0
26/06:00pm 6.9 2.9 6.5 97 0.2 SSE 17 24 9 13 - - 0.0
26/05:30pm 7.3 3.4 5.4 88 0.9 SSE 15 20 8 11 - - 0.0
26/05:00pm 7.5 2.1 4.3 80 1.6 SSE 22 28 12 15 - - 0.0
26/04:30pm 8.7 4.8 3.5 70 2.5 WSW 13 20 7 11 - - 0.0
26/04:00pm 9.6 5.9 4.2 69 2.7 WNW 13 22 7 12 - - 0.0
26/03:30pm 9.1 5.5 3.1 66 2.9 W 11 17 6 9 - - 0.0
26/03:00pm 9.1 5.9 3.3 67 2.8 SW 9 19 5 10 - - 0.0
26/02:30pm 8.9 4.9 2.7 65 2.9 W 13 19 7 10 - - 0.0
26/02:00pm 9.7 4.9 2.8 62 3.3 WSW 17 26 9 14 - - 0.0
26/01:30pm 8.3 4.2 2.3 66 2.8 W 13 20 7 11 - - 0.0
26/01:00pm 7.8 2.6 2.7 70 2.4 WNW 19 26 10 14 - - 0.0
26/12:30pm 7.3 1.9 2.6 72 2.2 WNW 20 28 11 15 - - 0.0
26/12:00pm 7.9 2.7 3.4 73 2.2 WNW 20 32 11 17 - - 0.0
26/11:30am 6.1 0.3 2.2 76 1.8 NW 22 33 12 18 - - 0.0
26/11:00am 7.1 1.1 3.3 77 1.8 NW 24 32 13 17 - - 0.0
26/10:30am 5.8 -0.4 2.4 79 1.6 WNW 24 32 13 17 - - 0.0
26/10:00am 4.9 -2.1 2.1 82 1.3 NW 28 35 15 19 - - 0.0
26/09:30am 4.5 -2.9 1.9 83 1.2 WNW 30 37 16 20 - - 0.0
26/09:00am 4.0 -3.8 1.5 84 1.1 WNW 32 37 17 20 - - 0.0
26/08:30am 3.6 -4.8 1.5 86 0.9 WNW 35 41 19 22 - - 0.0
26/08:00am 4.2 -3.6 1.7 84 1.1 WNW 32 39 17 21 - - 0.0
26/07:30am 3.4 -3.7 1.4 87 0.9 WNW 28 37 15 20 - - 0.0
26/07:00am 2.9 -5.0 1.3 89 0.7 WNW 32 39 17 21 - - 0.0
26/06:30am 2.8 -5.3 1.0 88 0.8 WNW 33 39 18 21 - - 0.0
26/06:00am 2.6 -5.5 0.8 88 0.8 WNW 33 43 18 23 - - 0.0
26/05:30am 2.8 -5.2 0.7 86 0.9 WNW 32 39 17 21 - - 0.0
26/05:00am 2.7 -4.5 0.6 86 0.9 WNW 28 41 15 22 - - 0.0
26/04:30am 2.6 -4.6 0.7 87 0.8 WNW 28 39 15 21 - - 0.0
26/04:00am 2.7 -4.9 0.6 86 0.9 WNW 30 41 16 22 - - 0.0
26/03:30am 2.5 -4.7 0.7 88 0.8 WNW 28 39 15 21 - - 0.0
26/03:00am 2.6 -5.3 0.8 88 0.8 WNW 32 37 17 20 - - 0.0
26/02:30am 2.6 -5.3 0.8 88 0.8 WNW 32 39 17 21 - - 0.0
26/02:00am 2.6 -4.6 1.0 89 0.7 WNW 28 35 15 19 - - 0.0
26/01:30am 2.6 -4.5 1.1 90 0.6 WNW 28 33 15 18 - - 0.0
26/01:00am 2.4 -4.0 1.1 91 0.6 WNW 24 30 13 16 - - 0.0
26/12:30am 2.6 -4.1 1.3 91 0.6 WNW 26 32 14 17 - - 0.0
26/12:00am 2.6 -3.4 0.8 88 0.8 WNW 22 26 12 14 - - 0.0
 
Date/Time
EDT
Temp
°C
App
Temp
°C
Dew
Point
Rel
Hum
%
Delta-T
°C
Wind Press
QNH
hPa
Press
MSL
hPa
Rain
since 9 am
mm
Dir
 
Spd
km/h
Gust
km/h
Spd
kts
Gust
kts
25/11:30pm 2.8 -2.3 0.9 87 0.8 NW 17 22 9 12 - - 0.0
25/11:00pm 2.6 -2.5 0.5 86 0.9 WNW 17 24 9 13 - - 0.0
25/10:30pm 2.4 -2.8 0.1 85 1.0 WNW 17 19 9 10 - - 0.0
25/10:00pm 2.7 -2.5 0.1 83 1.1 W 17 20 9 11 - - 0.0
25/09:30pm 2.7 -3.1 0.1 83 1.1 W 20 24 11 13 - - 0.0
25/09:00pm 2.8 -1.5 0.7 86 0.9 WNW 13 20 7 11 - - 0.0
25/08:30pm 3.1 -2.0 0.8 85 1.0 NW 17 22 9 12 - - 0.0
25/08:00pm 3.8 -1.6 1.0 82 1.2 NW 19 24 10 13 - - 0.0
25/07:30pm 4.2 -1.2 1.2 81 1.3 NW 19 24 10 13 - - 0.0
25/07:00pm 4.7 -0.8 2.1 83 1.2 WNW 20 26 11 14 - - 0.0
25/06:30pm 5.1 -0.4 1.8 79 1.5 W 20 28 11 15 - - 0.0
25/06:00pm 5.3 -0.2 2.0 79 1.5 WNW 20 30 11 16 - - 0.0
25/05:30pm 5.9 0.5 1.4 73 2.0 WNW 19 24 10 13 - - 0.0
25/05:00pm 5.9 0.4 2.0 76 1.8 WNW 20 26 11 14 - - 0.0
25/04:30pm 7.0 1.8 2.5 73 2.1 WNW 19 30 10 16 - - 0.0
25/04:00pm 7.5 2.1 2.6 71 2.3 W 20 30 11 16 - - 0.0
25/03:30pm 6.7 0.4 1.4 69 2.4 W 24 30 13 16 - - 0.0
25/03:00pm 6.9 1.2 0.8 65 2.7 NW 20 32 11 17 - - 0.0
25/02:30pm 6.8 1.3 1.7 70 2.3 W 20 28 11 15 - - 0.0
25/02:00pm 6.7 1.5 2.2 73 2.1 W 19 26 10 14 - - 0.0
25/01:30pm 6.1 0.9 2.2 76 1.8 WSW 19 24 10 13 - - 0.0
25/01:00pm 5.5 0.6 2.3 80 1.5 W 17 24 9 13 - - 0.0
25/12:30pm 4.7 -1.2 1.4 79 1.5 W 22 32 12 17 - - 0.0
25/12:00pm 4.0 -1.9 1.4 83 1.1 WNW 22 30 12 16 - - 0.0
25/11:30am 3.1 -3.2 1.5 89 0.7 WNW 24 30 13 16 - - 0.0
25/11:00am 2.9 -2.6 1.6 91 0.6 W 20 33 11 18 - - 0.0
25/10:30am 1.8 -3.6 1.2 96 0.3 W 19 26 10 14 - - 0.0
25/10:00am 2.0 -3.6 1.3 95 0.3 WNW 20 26 11 14 - - 0.0
25/09:30am 1.0 -4.8 0.1 94 0.4 WNW 20 26 11 14 - - 0.0
25/09:00am 0.4 -5.8 -0.3 95 0.3 W 22 28 12 15 - - 31.2
25/08:30am 0.6 -7.0 -1.8 84 1.0 WSW 28 33 15 18 - - 31.2
25/08:00am -0.2 -8.7 -3.2 80 1.1 SW 32 43 17 23 - - 31.2
25/07:30am -0.9 -7.8 -2.6 88 0.6 SW 24 35 13 19 - - 31.2
25/07:00am -0.3 -8.8 -3.7 78 1.3 WSW 32 50 17 27 - - 31.2
25/06:59am -0.4 -8.5 -3.4 80 1.1 SW 30 50 16 27 - - 31.2
25/06:30am -1.0 -9.6 -4.5 77 1.2 SW 32 44 17 24 - - 31.2
25/06:21am -1.1 -10.3 -4.3 79 1.1 SW 35 43 19 23 - - 31.2
25/06:00am -1.9 -7.5 -2.9 93 0.3 WSW 17 20 9 11 - - 31.2
25/05:30am -1.5 -6.6 -1.6 99 0.0 SW 15 20 8 11 - - 31.2
25/05:00am -1.0 -5.6 -1.1 99 0.0 SW 13 20 7 11 - - 31.2
25/04:30am -0.1 -5.0 -0.2 99 0.0 W 15 24 8 13 - - 31.2
25/04:00am 0.2 -5.4 0.1 99 0.0 W 19 24 10 13 - - 31.2
25/03:30am 0.9 -4.8 0.8 99 0.0 WNW 20 28 11 15 - - 31.2
25/03:00am 1.6 -4.7 1.5 99 0.0 NW 24 39 13 21 - - 31.2
25/02:30am 2.1 -5.7 1.8 98 0.1 NW 32 43 17 23 - - 31.2
25/02:00am 3.1 -4.5 3.0 99 0.0 WNW 32 56 17 30 - - 31.2
25/01:35am 3.5 -4.0 3.4 99 0.0 WNW 32 56 17 30 - - 31.2
25/01:30am 3.8 -2.9 3.7 99 0.0 WNW 28 41 15 22 - - 31.2
25/01:00am 4.3 -3.1 4.2 99 0.0 NW 32 43 17 23 - - 31.2
25/12:30am 5.0 0.1 4.9 99 0.0 NW 20 32 11 17 - - 31.2
25/12:00am 5.6 0.0 5.5 99 0.0 W 24 35 13 19 - - 31.2
 
Date/Time
EDT
Temp
°C
App
Temp
°C
Dew
Point
Rel
Hum
%
Delta-T
°C
Wind Press
QNH
hPa
Press
MSL
hPa
Rain
since 9 am
mm
Dir
 
Spd
km/h
Gust
km/h
Spd
kts
Gust
kts
24/11:30pm 6.8 1.5 6.8 100 0.0 W 24 33 13 18 - - 31.2
24/11:00pm 7.7 3.0 7.7 100 0.0 WNW 22 32 12 17 - - 31.0
24/10:30pm 8.6 3.0 8.6 100 0.0 NW 28 39 15 21 - - 30.8
24/10:00pm 8.6 3.3 8.6 100 0.0 NW 26 35 14 19 - - 30.2
24/09:30pm 8.5 2.1 8.5 100 0.0 NW 32 39 17 21 - - 30.0
24/09:00pm 8.5 2.1 8.5 100 0.0 NNW 32 43 17 23 - - 29.8
24/08:30pm 8.5 2.5 8.5 100 0.0 NNW 30 39 16 21 - - 26.2
24/08:00pm 8.4 2.0 8.4 100 0.0 NNW 32 37 17 20 - - 23.2
24/07:30pm 8.3 2.2 8.3 100 0.0 NW 30 48 16 26 - - 19.0
24/07:21pm 8.5 1.9 8.5 100 0.0 NNW 33 52 18 28 - - 17.6
24/07:20pm 8.6 1.3 8.6 100 0.0 NNW 37 52 20 28 - - 17.6
24/07:19pm 8.6 2.0 8.6 100 0.0 WNW 33 52 18 28 - - 17.4
24/07:00pm 9.3 3.1 9.3 100 0.0 WNW 32 48 17 26 - - 16.2
24/06:30pm 9.0 1.8 9.0 100 0.0 NW 37 59 20 32 - - 16.0
24/06:00pm 8.1 -0.7 8.1 100 0.0 NW 44 74 24 40 - - 12.8
24/05:30pm 8.0 -0.6 8.0 100 0.0 W 43 67 23 36 - - 9.4
24/05:15pm 8.4 -0.3 8.4 100 0.0 WNW 44 65 24 35 - - 8.2
24/05:05pm 8.5 -4.9 8.5 100 0.0 WNW 69 115 37 62 - - 7.4
24/05:03pm 10.8 -0.1 10.8 100 0.0 WNW 59 87 32 47 - - 4.8
24/05:00pm 10.6 -1.2 10.6 100 0.0 NNW 63 104 34 56 - - 1.8
24/04:30pm 10.6 -1.5 10.6 100 0.0 NNW 65 87 35 47 - - 0.8
24/04:00pm 10.5 -0.1 10.5 100 0.0 NNW 57 87 31 47 - - 0.8
24/03:47pm 10.4 -0.6 10.4 100 0.0 NNW 59 89 32 48 - - 0.8
24/03:30pm 10.3 1.3 10.3 100 0.0 NNW 48 69 26 37 - - 0.6

Other Formats:

Comma delimited format used in spreadsheet applications
http://www.bom.gov.au/fwo/IDV60801/IDV60801.94906.axf

JavaScript Object Notation format (JSON) in row-major order
http://www.bom.gov.au/fwo/IDV60801/IDV60801.94906.json